Time;durP1;ratioP1;P1;durP2;ratioP2;P2;SDS_P1;SDS_P2;PMS_P1;PMS_P2;Temp;Humidity;BMP_temperature;BMP_pressure;BME280_temperature;BME280_humidity;BME280_pressure;Samples;Min_cycle;Max_cycle;Signal;HPM_P1;HPM_P2
2022/04/30 00:00:16;;;;;;;10.13;9.23;;;;;;;12.28;nan;100036.00;5005859;28;20237;-76
2022/04/30 00:02:42;;;;;;;11.48;10.27;;;;;;;12.32;nan;100043.63;5004712;28;20848;-77
2022/04/30 00:05:09;;;;;;;10.80;9.80;;;;;;;12.33;nan;100047.09;5003962;28;20923;-78
2022/04/30 00:07:34;;;;;;;10.18;9.05;;;;;;;12.35;nan;100039.94;5004907;28;20199;-78
2022/04/30 00:10:00;;;;;;;10.67;9.70;;;;;;;12.30;nan;100047.28;5006023;28;20214;-77
2022/04/30 00:12:26;;;;;;;10.43;9.43;;;;;;;12.26;nan;100049.28;5005129;28;20229;-77
2022/04/30 00:14:54;;;;;;;11.45;10.00;;;;;;;12.26;nan;100044.03;5005086;28;20242;-77
2022/04/30 00:17:19;;;;;;;9.90;9.02;;;;;;;12.29;nan;100046.47;5008541;28;20598;-78
2022/04/30 00:19:45;;;;;;;9.03;8.23;;;;;;;12.32;nan;100050.69;5009479;28;20689;-77
2022/04/30 00:22:10;;;;;;;11.20;10.20;;;;;;;12.31;nan;100054.25;5008649;28;20250;-77
2022/04/30 00:24:36;;;;;;;11.23;10.20;;;;;;;12.28;nan;100055.28;5008184;28;20234;-78
2022/04/30 00:27:02;;;;;;;12.63;9.93;;;;;;;12.23;nan;100060.00;5007672;28;20234;-77
2022/04/30 00:29:29;;;;;;;11.43;9.57;;;;;;;12.11;nan;100061.63;4988904;28;21088;-77
2022/04/30 00:31:56;;;;;;;11.40;10.40;;;;;;;12.03;nan;100063.06;5009078;28;20502;-77
2022/04/30 00:34:21;;;;;;;10.20;9.15;;;;;;;11.94;nan;100057.41;5007970;28;20221;-77
2022/04/30 00:36:47;;;;;;;9.70;8.80;;;;;;;11.93;nan;100054.88;5008468;28;20206;-78
2022/04/30 00:39:13;;;;;;;10.30;9.07;;;;;;;11.91;nan;100072.56;5008225;28;20192;-77
2022/04/30 00:41:42;;;;;;;10.43;9.43;;;;;;;11.88;nan;100056.94;5008163;28;20204;-78
2022/04/30 00:44:08;;;;;;;10.45;9.13;;;;;;;11.86;nan;100053.56;4990427;28;20297;-77
2022/04/30 00:46:33;;;;;;;9.80;8.37;;;;;;;11.82;nan;100047.59;5008475;28;20207;-78
2022/04/30 00:49:01;;;;;;;10.77;9.67;;;;;;;11.71;nan;100056.16;5008089;28;20202;-77
2022/04/30 00:51:28;;;;;;;11.13;10.05;;;;;;;11.65;nan;100059.16;5005001;28;20217;-77
2022/04/30 00:53:54;;;;;;;10.55;9.48;;;;;;;11.57;nan;100060.59;5008231;28;20265;-77
2022/04/30 00:56:32;;;;;;;10.32;9.25;;;;;;;11.50;nan;100062.72;5006993;28;20209;-78
2022/04/30 00:59:01;;;;;;;10.63;9.63;;;;;;;11.40;nan;100053.72;5007379;28;20195;-77
2022/04/30 01:01:30;;;;;;;10.77;9.60;;;;;;;11.40;nan;100056.34;5007486;28;20203;-77
2022/04/30 01:04:28;;;;;;;9.80;8.75;;;;;;;11.44;nan;100047.31;5007416;28;20245;-77
2022/04/30 01:07:02;;;;;;;11.27;9.50;;;;;;;11.50;nan;100053.06;5007111;28;20211;-77
2022/04/30 01:09:31;;;;;;;10.10;9.10;;;;;;;11.56;nan;100046.59;5007325;28;20222;-77
2022/04/30 01:12:02;;;;;;;10.90;9.73;;;;;;;11.63;nan;100052.31;4990303;28;20214;-77
2022/04/30 01:14:31;;;;;;;9.98;9.07;;;;;;;11.69;nan;100057.19;5008413;28;20273;-76
2022/04/30 01:16:58;;;;;;;10.50;8.65;;;;;;;11.74;nan;100061.22;5007463;28;20226;-77
2022/04/30 01:19:26;;;;;;;8.75;7.90;;;;;;;11.79;nan;100060.94;5007892;28;20209;-77
2022/04/30 01:21:55;;;;;;;10.45;9.45;;;;;;;11.81;nan;100053.81;5007951;28;20218;-77
2022/04/30 01:24:22;;;;;;;12.25;9.50;;;;;;;11.84;nan;100056.25;5006044;28;20234;-77
2022/04/30 01:26:51;;;;;;;10.15;8.82;;;;;;;11.87;nan;100066.63;5007090;28;20214;-78
2022/04/30 01:29:18;;;;;;;9.55;8.60;;;;;;;11.90;nan;100057.69;5006971;28;20714;-77
2022/04/30 01:37:25;;;;;;;15.07;10.50;;;;;;;11.99;nan;100056.28;5009691;28;20759;-77
2022/04/30 01:39:55;;;;;;;11.48;9.15;;;;;;;11.99;nan;100056.28;5008533;28;20206;-77
2022/04/30 01:42:21;;;;;;;11.40;9.63;;;;;;;11.99;nan;100058.91;4662078;28;10000784;-77
2022/04/30 01:44:46;;;;;;;11.20;10.20;;;;;;;11.99;nan;100054.50;5007312;28;20489;-77
2022/04/30 01:47:14;;;;;;;10.37;9.40;;;;;;;12.01;nan;100057.88;5006898;28;20289;-77
2022/04/30 01:49:39;;;;;;;11.10;10.10;;;;;;;12.02;nan;100056.94;4989470;28;20332;-77
2022/04/30 01:52:09;;;;;;;13.13;10.47;;;;;;;12.04;nan;100054.19;5007361;28;20199;-78
2022/04/30 01:54:35;;;;;;;13.93;11.40;;;;;;;12.04;nan;100049.78;5007383;28;20280;-77
2022/04/30 01:57:01;;;;;;;13.80;12.38;;;;;;;12.07;nan;100048.75;5006993;28;20253;-77
2022/04/30 01:59:26;;;;;;;14.00;12.40;;;;;;;12.09;nan;100044.22;5005487;28;20234;-77
2022/04/30 02:01:53;;;;;;;18.77;16.70;;;;;;;12.10;nan;100038.03;4987876;28;20423;-77
2022/04/30 02:04:18;;;;;;;15.13;13.52;;;;;;;12.09;nan;100034.53;5006654;28;20626;-77
2022/04/30 02:06:45;;;;;;;15.33;13.80;;;;;;;12.08;nan;100035.50;5007550;28;20202;-77
2022/04/30 02:09:14;;;;;;;14.68;13.15;;;;;;;12.07;nan;100030.31;5006325;28;20217;-76
2022/04/30 02:11:40;;;;;;;16.60;14.95;;;;;;;12.05;nan;100030.41;5008437;28;20472;-77
2022/04/30 02:14:10;;;;;;;15.33;13.37;;;;;;;12.05;nan;100033.06;4994521;28;20576;-77
2022/04/30 02:16:42;;;;;;;15.40;12.70;;;;;;;12.02;nan;100027.16;5023483;28;20460;-75
2022/04/30 02:19:20;;;;;;;17.20;13.52;;;;;;;11.98;nan;100020.38;5021046;28;20198;-75
2022/04/30 02:21:48;;;;;;;14.60;12.85;;;;;;;11.93;nan;100020.66;5007712;28;20706;-76
2022/04/30 02:24:15;;;;;;;15.02;13.48;;;;;;;11.90;nan;100019.03;5006394;28;20253;-74
2022/04/30 02:26:41;;;;;;;14.45;12.75;;;;;;;11.90;nan;100018.22;5007231;28;20709;-76
2022/04/30 02:29:07;;;;;;;15.57;11.77;;;;;;;11.91;nan;100020.75;5007068;28;20592;-76
2022/04/30 02:31:33;;;;;;;15.73;14.13;;;;;;;11.94;nan;100023.19;5006169;28;20203;-73
2022/04/30 02:33:58;;;;;;;15.80;13.33;;;;;;;11.98;nan;100023.84;5007030;28;20207;-76
2022/04/30 02:36:27;;;;;;;15.40;12.30;;;;;;;11.99;nan;100022.03;5006858;28;20578;-76
2022/04/30 02:38:57;;;;;;;11.40;10.20;;;;;;;11.97;nan;100024.78;5003956;28;20238;-76
2022/04/30 02:41:23;;;;;;;13.82;12.43;;;;;;;11.91;nan;100025.19;5003898;28;20210;-76
2022/04/30 02:43:50;;;;;;;12.45;11.18;;;;;;;11.87;nan;100028.94;5006106;28;20234;-74
2022/04/30 02:46:22;;;;;;;13.48;11.77;;;;;;;11.77;nan;100020.72;5006738;28;20203;-74
2022/04/30 02:48:48;;;;;;;12.52;11.38;;;;;;;11.68;nan;100019.50;5006730;28;20203;-73
2022/04/30 02:51:15;;;;;;;12.70;11.50;;;;;;;11.65;nan;100017.06;5005781;28;20282;-76
2022/04/30 02:53:41;;;;;;;14.20;12.70;;;;;;;11.66;nan;100016.13;5006253;28;20211;-76
2022/04/30 02:56:09;;;;;;;15.48;12.90;;;;;;;11.68;nan;100008.97;5006737;28;20231;-76
2022/04/30 03:01:20;;;;;;;15.23;13.50;;;;;;;11.69;nan;100008.06;5006421;28;20217;-76
2022/04/30 03:04:02;;;;;;;14.50;12.23;;;;;;;11.67;nan;100002.03;5004846;28;20210;-76
2022/04/30 03:06:31;;;;;;;16.38;14.75;;;;;;;11.68;nan;100010.78;5008168;28;20202;-76
2022/04/30 03:08:58;;;;;;;13.30;12.00;;;;;;;11.63;nan;100011.03;5007210;28;20301;-76
2022/04/30 03:11:23;;;;;;;15.45;12.60;;;;;;;11.56;nan;100001.88;5007413;28;20233;-76
2022/04/30 03:13:48;;;;;;;12.93;11.60;;;;;;;11.49;nan;100008.44;5007511;28;20695;-74
2022/04/30 03:21:46;;;;;;;13.50;11.88;;;;;;;11.30;nan;99999.00;5010557;28;20218;-75
2022/04/30 03:24:15;;;;;;;15.55;11.95;;;;;;;11.24;nan;99999.41;4987401;28;20665;-76
2022/04/30 03:26:42;;;;;;;15.05;13.45;;;;;;;11.24;nan;100001.19;5006619;28;20202;-76
2022/04/30 03:29:08;;;;;;;14.88;13.20;;;;;;;11.24;nan;99999.41;5005994;28;20701;-76
2022/04/30 03:31:34;;;;;;;13.80;12.40;;;;;;;11.24;nan;100004.66;5006981;28;20206;-75
2022/04/30 03:33:59;;;;;;;12.97;11.77;;;;;;;11.22;nan;99996.00;5007093;28;20203;-76
2022/04/30 03:36:25;;;;;;;15.70;11.60;;;;;;;11.20;nan;100013.66;5006568;28;20233;-76
2022/04/30 03:38:50;;;;;;;13.53;12.17;;;;;;;11.20;nan;100011.03;5007875;28;20264;-75
2022/04/30 03:41:16;;;;;;;14.70;13.20;;;;;;;11.16;nan;100006.91;5007240;28;20203;-74
2022/04/30 03:43:42;;;;;;;14.20;11.80;;;;;;;11.13;nan;100001.81;5008563;28;20706;-76
2022/04/30 03:46:07;;;;;;;16.10;12.70;;;;;;;11.08;nan;100004.72;5013416;28;20481;-76
2022/04/30 03:48:33;;;;;;;15.03;12.57;;;;;;;11.05;nan;99996.19;5012525;28;20253;-73
2022/04/30 03:50:59;;;;;;;14.45;12.95;;;;;;;11.04;nan;100003.22;5014085;28;20249;-76
2022/04/30 03:53:25;;;;;;;14.57;12.97;;;;;;;11.05;nan;100004.06;5012807;28;20300;-76
2022/04/30 03:55:51;;;;;;;13.33;11.27;;;;;;;11.03;nan;100009.41;5012836;28;20469;-76
2022/04/30 03:58:17;;;;;;;15.13;11.55;;;;;;;10.94;nan;100002.06;5011309;28;20453;-76
2022/04/30 04:00:43;;;;;;;13.07;11.77;;;;;;;10.84;nan;99995.66;5004025;28;20583;-76
2022/04/30 04:03:09;;;;;;;13.70;12.40;;;;;;;10.70;nan;100006.13;5005159;28;20218;-76
2022/04/30 04:05:34;;;;;;;11.93;10.83;;;;;;;10.59;nan;99998.88;5005509;28;20531;-73
2022/04/30 04:08:00;;;;;;;13.50;12.30;;;;;;;10.47;nan;100010.91;5005267;28;20647;-76
2022/04/30 04:10:26;;;;;;;12.70;11.40;;;;;;;10.37;nan;100005.34;5005692;28;20210;-76
2022/04/30 04:12:52;;;;;;;13.05;11.75;;;;;;;10.29;nan;100011.94;5005667;28;20280;-76
2022/04/30 04:18:03;;;;;;;13.93;12.25;;;;;;;10.26;nan;100010.31;5005473;28;20653;-74
2022/04/30 04:20:28;;;;;;;15.00;13.43;;;;;;;10.27;nan;100016.41;5006669;28;20297;-75
2022/04/30 04:22:55;;;;;;;12.93;11.40;;;;;;;10.29;nan;100014.56;5005755;28;20475;-76
2022/04/30 04:28:05;;;;;;;15.82;12.55;;;;;;;10.24;nan;100020.06;5005306;28;20668;-74
2022/04/30 04:30:32;;;;;;;14.30;12.80;;;;;;;10.19;nan;100014.22;5006760;28;20213;-76
2022/04/30 04:32:58;;;;;;;14.23;10.70;;;;;;;10.17;nan;100016.91;5011610;28;20196;-75
2022/04/30 04:35:24;;;;;;;12.60;11.20;;;;;;;10.14;nan;100017.06;5007748;28;20250;-75
2022/04/30 04:37:50;;;;;;;15.23;13.02;;;;;;;10.04;nan;100018.50;5006140;28;20473;-75
2022/04/30 04:40:17;;;;;;;14.13;12.93;;;;;;;9.93;nan;100016.47;5007106;28;20214;-75
2022/04/30 04:42:43;;;;;;;16.38;13.32;;;;;;;9.88;nan;100022.91;4988442;28;20250;-76
2022/04/30 04:45:10;;;;;;;15.25;13.00;;;;;;;9.88;nan;100020.28;5005625;28;20659;-75
2022/04/30 04:47:39;;;;;;;14.02;12.20;;;;;;;9.91;nan;100020.97;5005615;28;20302;-74
2022/04/30 04:50:05;;;;;;;15.40;13.20;;;;;;;9.95;nan;100027.75;5004813;28;20284;-76
2022/04/30 04:52:30;;;;;;;13.10;11.85;;;;;;;10.01;nan;100023.09;5005418;28;20249;-77
2022/04/30 04:54:57;;;;;;;14.17;12.67;;;;;;;10.04;nan;100020.28;5005813;28;20242;-77
2022/04/30 04:57:23;;;;;;;14.23;12.85;;;;;;;10.07;nan;100020.13;5005739;28;20235;-76
2022/04/30 04:59:49;;;;;;;13.97;12.43;;;;;;;10.11;nan;100033.00;5004783;28;20261;-75
2022/04/30 05:02:16;;;;;;;16.97;15.27;;;;;;;10.16;nan;100030.13;5007932;28;20843;-76
2022/04/30 05:04:41;;;;;;;14.50;13.10;;;;;;;10.22;nan;100035.03;5007345;28;20670;-77
2022/04/30 05:07:07;;;;;;;12.87;11.47;;;;;;;10.30;nan;100035.47;5008240;28;20512;-77
2022/04/30 05:09:32;;;;;;;13.30;11.83;;;;;;;10.32;nan;100038.88;5006426;28;20210;-77
2022/04/30 05:12:01;;;;;;;14.33;12.83;;;;;;;10.33;nan;100043.19;5007697;28;20187;-77
2022/04/30 05:14:32;;;;;;;13.80;12.30;;;;;;;10.36;nan;100045.63;5008834;28;20729;-76
2022/04/30 05:16:59;;;;;;;15.48;12.52;;;;;;;10.37;nan;100047.34;5020156;28;20218;-77
2022/04/30 05:19:25;;;;;;;12.90;11.55;;;;;;;10.41;nan;100048.03;5019143;28;20329;-77
2022/04/30 05:21:50;;;;;;;15.50;13.90;;;;;;;10.46;nan;100047.78;5008169;28;21180;-77
2022/04/30 05:24:15;;;;;;;16.33;13.97;;;;;;;10.53;nan;100039.47;5001375;28;20235;-77
2022/04/30 05:26:41;;;;;;;14.43;12.90;;;;;;;10.65;nan;100044.94;5003620;28;20210;-75
2022/04/30 05:29:07;;;;;;;15.30;13.37;;;;;;;10.74;nan;100042.63;5004200;28;20430;-77
2022/04/30 05:31:32;;;;;;;14.70;12.90;;;;;;;10.91;nan;100053.94;5001798;28;20207;-76
2022/04/30 05:33:58;;;;;;;14.87;13.37;;;;;;;11.04;nan;100047.03;5003514;28;20213;-75
2022/04/30 05:36:23;;;;;;;15.70;14.17;;;;;;;11.11;nan;100043.13;5003727;28;20207;-77
2022/04/30 05:38:49;;;;;;;15.20;13.43;;;;;;;11.12;nan;100042.19;5003395;28;20215;-74
2022/04/30 05:41:14;;;;;;;15.30;11.80;;;;;;;11.16;nan;100048.97;5004270;28;20217;-77
2022/04/30 05:43:40;;;;;;;14.03;12.60;;;;;;;11.22;nan;100051.22;5004865;28;20574;-77
2022/04/30 05:46:06;;;;;;;14.97;12.50;;;;;;;11.26;nan;100044.84;5008113;28;20226;-75
2022/04/30 05:48:32;;;;;;;17.38;12.63;;;;;;;11.23;nan;100046.81;5007338;28;20277;-77
2022/04/30 05:50:58;;;;;;;15.07;13.30;;;;;;;11.21;nan;100054.81;5006098;28;20202;-77
2022/04/30 05:53:23;;;;;;;15.20;13.20;;;;;;;11.18;nan;100060.25;5005157;28;20203;-77
2022/04/30 05:55:49;;;;;;;17.73;15.17;;;;;;;11.15;nan;100062.19;5003354;28;20579;-75
2022/04/30 05:58:15;;;;;;;14.47;12.97;;;;;;;11.13;nan;100062.28;5003552;28;20623;-74
2022/04/30 06:00:40;;;;;;;15.43;13.87;;;;;;;11.17;nan;100069.06;5002829;28;20241;-77
2022/04/30 06:03:06;;;;;;;19.77;15.43;;;;;;;11.18;nan;100070.75;5001780;28;20285;-76
2022/04/30 06:05:31;;;;;;;15.90;13.70;;;;;;;11.17;nan;100066.41;4985445;28;20349;-76
2022/04/30 06:07:57;;;;;;;18.10;16.13;;;;;;;11.18;nan;100073.41;5003693;28;20534;-77
2022/04/30 06:10:22;;;;;;;16.83;14.27;;;;;;;11.25;nan;100071.22;5001219;28;20207;-75
2022/04/30 06:12:48;;;;;;;15.60;14.00;;;;;;;11.32;nan;100069.94;5003636;28;20295;-74
2022/04/30 06:15:13;;;;;;;20.00;14.20;;;;;;;11.40;nan;100077.38;5001392;28;20258;-77
2022/04/30 06:17:38;;;;;;;15.53;13.87;;;;;;;11.44;nan;100071.81;5001809;28;20470;-75
2022/04/30 06:20:04;;;;;;;17.13;14.60;;;;;;;11.50;nan;100078.50;5002016;28;20210;-76
2022/04/30 06:22:30;;;;;;;19.63;15.87;;;;;;;11.54;nan;100077.41;5002321;28;20282;-77
2022/04/30 06:24:56;;;;;;;16.23;13.50;;;;;;;11.58;nan;100073.63;5003861;28;20648;-77
2022/04/30 06:27:22;;;;;;;21.10;17.75;;;;;;;11.57;nan;100071.94;5004044;28;20457;-77
2022/04/30 06:29:49;;;;;;;19.77;16.00;;;;;;;11.59;nan;100067.44;5001725;28;20282;-75
2022/04/30 06:32:14;;;;;;;17.58;15.27;;;;;;;11.69;nan;100067.72;5005165;28;20203;-76
2022/04/30 06:34:40;;;;;;;18.90;15.57;;;;;;;11.79;nan;100071.47;5003561;28;20239;-76
2022/04/30 06:37:05;;;;;;;19.65;16.55;;;;;;;11.90;nan;100076.13;5003910;28;20498;-75
2022/04/30 06:39:31;;;;;;;24.57;17.00;;;;;;;12.02;nan;100075.38;5001902;28;20211;-77
2022/04/30 06:41:56;;;;;;;18.70;16.27;;;;;;;12.24;nan;100068.75;5003650;28;20214;-77
2022/04/30 06:44:23;;;;;;;28.77;16.08;;;;;;;12.74;nan;100069.94;5005096;28;20234;-77
2022/04/30 06:46:48;;;;;;;18.07;15.30;;;;;;;13.20;nan;100065.09;5006700;28;20603;-76
2022/04/30 06:49:14;;;;;;;16.63;14.93;;;;;;;13.63;nan;100066.63;5004796;28;20201;-75
2022/04/30 06:51:39;;;;;;;20.40;15.83;;;;;;;13.99;nan;100076.44;5007686;28;20245;-77
2022/04/30 06:59:54;;;;;;;16.33;14.07;;;;;;;15.61;nan;100071.56;4941279;29;20259;-77
2022/04/30 07:02:23;;;;;;;17.27;13.55;;;;;;;15.89;nan;100065.00;4943126;29;20254;-75
2022/04/30 07:04:52;;;;;;;18.90;15.50;;;;;;;16.27;nan;100071.72;4973890;28;20237;-75
2022/04/30 07:07:19;;;;;;;16.27;13.60;;;;;;;16.75;nan;100076.66;5009033;28;20681;-78
2022/04/30 07:09:45;;;;;;;18.90;15.10;;;;;;;17.14;nan;100070.84;5014775;28;20460;-77
2022/04/30 07:12:13;;;;;;;18.10;13.48;;;;;;;17.30;nan;100073.06;5016561;28;20211;-75
2022/04/30 07:14:40;;;;;;;15.50;13.10;;;;;;;17.38;nan;100058.16;5012158;28;20920;-75
2022/04/30 07:17:10;;;;;;;19.00;15.20;;;;;;;17.37;nan;100074.25;5013242;28;20471;-76
2022/04/30 07:19:36;;;;;;;16.80;12.90;;;;;;;17.47;nan;100065.38;5005790;28;20477;-77
2022/04/30 07:22:02;;;;;;;15.07;13.57;;;;;;;17.46;nan;100063.66;5004645;28;20473;-75
2022/04/30 07:24:28;;;;;;;17.83;15.47;;;;;;;17.50;nan;100066.94;5006214;28;20472;-79
2022/04/30 07:26:54;;;;;;;17.03;15.27;;;;;;;17.30;nan;100065.94;5003420;28;20439;-76
2022/04/30 07:29:19;;;;;;;15.87;14.27;;;;;;;17.39;nan;100070.50;5005648;28;20454;-74
2022/04/30 07:31:45;;;;;;;19.77;15.47;;;;;;;17.64;nan;100071.88;5005841;28;20218;-75
2022/04/30 07:34:11;;;;;;;17.97;15.20;;;;;;;17.61;nan;100064.19;5008797;28;20227;-76
2022/04/30 07:36:37;;;;;;;19.87;16.43;;;;;;;17.48;nan;100069.69;5009732;28;20211;-76
2022/04/30 07:39:03;;;;;;;19.60;15.80;;;;;;;17.20;nan;100073.84;5012160;28;20460;-74
2022/04/30 07:41:29;;;;;;;20.37;16.80;;;;;;;16.98;nan;100073.94;5010130;28;20461;-76
2022/04/30 07:43:55;;;;;;;21.77;17.10;;;;;;;16.71;nan;100072.56;5005870;28;20469;-76
2022/04/30 07:46:22;;;;;;;19.47;15.93;;;;;;;16.45;nan;100072.03;5004898;28;20206;-76
2022/04/30 07:48:48;;;;;;;22.83;17.80;;;;;;;16.24;nan;100074.59;5007246;28;20485;-74
2022/04/30 07:51:14;;;;;;;21.10;16.73;;;;;;;16.03;nan;100069.19;4985585;28;20454;-76
2022/04/30 07:53:43;;;;;;;26.37;18.80;;;;;;;15.80;nan;100075.47;4989307;28;20860;-76
2022/04/30 07:56:09;;;;;;;23.30;20.10;;;;;;;15.61;nan;100074.22;5006238;28;20750;-76
2022/04/30 07:58:34;;;;;;;20.47;18.17;;;;;;;15.46;nan;100078.03;5006201;28;20433;-74
2022/04/30 08:01:00;;;;;;;24.13;20.60;;;;;;;15.36;nan;100090.28;5005134;28;21121;-76
2022/04/30 08:03:25;;;;;;;26.63;19.83;;;;;;;15.33;nan;100087.88;5004006;28;20208;-75
2022/04/30 08:05:50;;;;;;;26.90;19.90;;;;;;;15.26;nan;100083.06;5006705;28;20216;-76
2022/04/30 08:08:16;;;;;;;27.45;21.27;;;;;;;15.26;nan;100085.69;5006685;28;20200;-75
2022/04/30 08:10:42;;;;;;;24.50;18.13;;;;;;;15.24;nan;100086.78;5005133;28;20842;-75
2022/04/30 08:13:07;;;;;;;25.63;19.70;;;;;;;15.15;nan;100082.16;5006181;28;20179;-76
2022/04/30 08:15:33;;;;;;;23.20;17.57;;;;;;;15.04;nan;100089.13;5005800;28;20287;-73
2022/04/30 08:17:58;;;;;;;22.23;18.53;;;;;;;15.05;nan;100084.66;5005300;28;20220;-73
2022/04/30 08:20:24;;;;;;;34.20;20.93;;;;;;;15.47;nan;100095.59;5004895;28;20268;-73
2022/04/30 08:22:50;;;;;;;22.10;19.70;;;;;;;15.82;nan;100082.31;5005275;28;20219;-73
2022/04/30 08:25:16;;;;;;;24.40;18.65;;;;;;;15.95;nan;100089.31;5005647;28;20219;-73
2022/04/30 08:27:41;;;;;;;27.90;21.83;;;;;;;15.93;nan;100089.41;5004719;28;20185;-73
2022/04/30 08:30:08;;;;;;;24.93;18.63;;;;;;;16.01;nan;100083.53;5005151;28;20193;-74
2022/04/30 08:32:33;;;;;;;24.10;17.95;;;;;;;16.08;nan;100090.88;5004259;28;20469;-73
2022/04/30 08:35:00;;;;;;;28.60;20.23;;;;;;;16.22;nan;100086.28;5005991;28;20245;-74
2022/04/30 08:37:26;;;;;;;28.10;19.98;;;;;;;16.46;nan;100086.97;5008470;28;20197;-74
2022/04/30 08:39:52;;;;;;;26.83;21.87;;;;;;;16.84;nan;100079.56;5007819;28;20259;-74
2022/04/30 08:42:17;;;;;;;27.87;19.53;;;;;;;17.22;nan;100076.38;5009186;28;20483;-74
2022/04/30 08:44:43;;;;;;;24.07;19.70;;;;;;;17.53;nan;100079.94;5008100;28;20203;-74
2022/04/30 08:47:11;;;;;;;24.07;18.60;;;;;;;17.86;nan;100078.03;5009013;28;20593;-74
2022/04/30 08:49:40;;;;;;;20.47;18.07;;;;;;;18.08;nan;100075.19;5008128;28;20251;-74
2022/04/30 08:52:06;;;;;;;24.33;18.17;;;;;;;18.37;nan;100079.78;5006992;28;20807;-74
2022/04/30 08:54:32;;;;;;;24.67;17.97;;;;;;;18.62;nan;100074.91;5008830;28;20484;-74
2022/04/30 08:56:57;;;;;;;21.10;17.40;;;;;;;18.72;nan;100078.44;5008290;28;20619;-74
2022/04/30 08:59:23;;;;;;;20.57;16.90;;;;;;;18.73;nan;100070.28;5008046;28;20479;-73
2022/04/30 09:01:55;;;;;;;18.77;16.10;;;;;;;18.78;nan;100075.25;5007760;28;20239;-73
2022/04/30 09:04:21;;;;;;;17.93;15.90;;;;;;;18.81;nan;100076.78;5008996;28;20462;-74
2022/04/30 09:06:58;;;;;;;21.70;17.87;;;;;;;18.93;nan;100065.00;5008942;28;20453;-74
2022/04/30 09:09:28;;;;;;;21.90;16.70;;;;;;;18.89;nan;100069.78;5008610;28;20849;-74
2022/04/30 09:11:57;;;;;;;17.13;15.17;;;;;;;18.95;nan;100068.38;5007056;28;20447;-74
2022/04/30 09:14:29;;;;;;;20.50;15.67;;;;;;;19.04;nan;100062.22;5008309;28;20486;-74
2022/04/30 09:17:09;;;;;;;16.73;14.70;;;;;;;19.21;nan;100064.16;5008319;28;20816;-74
2022/04/30 09:19:51;;;;;;;16.73;14.10;;;;;;;19.32;nan;100060.50;5008394;28;20513;-74
2022/04/30 09:22:38;;;;;;;19.80;16.57;;;;;;;19.31;nan;100056.16;5007004;28;20490;-74
2022/04/30 09:25:12;;;;;;;15.40;12.97;;;;;;;19.35;nan;100056.72;5005341;28;20963;-74
2022/04/30 09:27:51;;;;;;;16.27;14.57;;;;;;;19.42;nan;100050.69;5007101;28;20806;-74
2022/04/30 09:30:24;;;;;;;17.30;15.30;;;;;;;19.16;nan;100055.75;5008523;28;20450;-74
2022/04/30 09:33:06;;;;;;;19.27;13.87;;;;;;;18.90;nan;100054.66;5007086;28;20461;-74
2022/04/30 09:38:23;;;;;;;17.60;15.47;;;;;;;18.96;nan;100062.94;4967871;28;20514;-91
2022/04/30 09:40:53;;;;;;;20.70;16.67;;;;;;;18.95;nan;100049.75;4978519;28;20448;-91
2022/04/30 09:43:39;;;;;;;16.87;15.17;;;;;;;19.13;nan;100040.06;4981295;28;20497;-91
2022/04/30 09:46:25;;;;;;;;;;;;;;;;;;;;;
2022/04/30 09:54:03;;;;;;;18.17;15.47;;;;;;;19.22;nan;100033.03;4989895;28;20463;-76
2022/04/30 09:56:39;;;;;;;23.30;15.30;;;;;;;19.23;nan;100022.25;4991439;28;20876;-76
2022/04/30 09:59:10;;;;;;;15.80;13.07;;;;;;;19.44;nan;100026.53;4991841;28;20455;-75
2022/04/30 10:01:37;;;;;;;13.13;11.40;;;;;;;19.43;nan;100024.88;4992213;28;20455;-76
2022/04/30 10:04:10;;;;;;;12.97;11.70;;;;;;;19.42;nan;100023.19;4990080;28;20474;-75
2022/04/30 10:06:41;;;;;;;15.10;12.83;;;;;;;19.49;nan;100015.47;4991964;28;20467;-76
2022/04/30 10:09:14;;;;;;;18.80;13.33;;;;;;;19.51;nan;100019.66;4991112;28;20458;-78
2022/04/30 10:12:07;;;;;;;15.73;14.17;;;;;;;19.37;nan;100020.13;4990954;28;20573;-77
2022/04/30 10:14:50;;;;;;;15.40;12.73;;;;;;;19.41;nan;100009.00;4989532;28;20479;-77
2022/04/30 10:17:20;;;;;;;17.47;13.00;;;;;;;19.53;nan;100012.38;4992371;28;20470;-77
2022/04/30 10:20:00;;;;;;;12.97;11.57;;;;;;;19.49;nan;100002.13;4992769;28;20493;-77
2022/04/30 10:22:26;;;;;;;14.37;12.43;;;;;;;19.50;nan;100004.66;4989761;28;20491;-78
2022/04/30 10:24:57;;;;;;;16.83;12.63;;;;;;;19.54;nan;100005.22;4991129;28;20574;-78
2022/04/30 10:27:24;;;;;;;12.70;10.57;;;;;;;19.27;nan;100013.97;4992082;28;20569;-77
2022/04/30 10:29:53;;;;;;;17.20;13.57;;;;;;;19.00;nan;100011.06;4992367;28;20824;-76
2022/04/30 10:32:26;;;;;;;12.33;10.10;;;;;;;19.02;nan;100008.28;4989992;28;20516;-73
2022/04/30 10:34:55;;;;;;;13.70;10.53;;;;;;;19.14;nan;100000.97;4988715;28;20486;-78
2022/04/30 10:37:32;;;;;;;13.30;11.90;;;;;;;19.34;nan;100007.94;4989708;28;20471;-76
2022/04/30 10:39:59;;;;;;;14.87;11.30;;;;;;;19.59;nan;99997.63;4991994;28;20462;-78
2022/04/30 10:42:32;;;;;;;11.00;9.67;;;;;;;19.75;nan;99992.53;4989592;28;20551;-78
2022/04/30 10:44:58;;;;;;;11.60;10.43;;;;;;;19.77;nan;99989.72;4990301;28;20486;-78
2022/04/30 10:47:24;;;;;;;15.27;13.00;;;;;;;19.86;nan;99988.84;4990791;28;20450;-77
2022/04/30 10:49:52;;;;;;;12.13;9.90;;;;;;;19.97;nan;99991.28;4991365;28;20490;-73
2022/04/30 10:52:24;;;;;;;11.07;9.97;;;;;;;20.10;nan;99981.13;4971959;28;20234;-77
2022/04/30 10:54:50;;;;;;;10.47;8.87;;;;;;;19.98;nan;99990.31;4991118;28;20607;-75
2022/04/30 10:57:16;;;;;;;10.83;9.73;;;;;;;19.89;nan;99978.69;4991114;28;20567;-76
2022/04/30 10:59:42;;;;;;;12.87;10.30;;;;;;;19.93;nan;99984.59;4989916;28;20582;-77
2022/04/30 11:02:12;;;;;;;13.47;12.07;;;;;;;19.94;nan;99975.59;4991077;28;20557;-77
2022/04/30 11:04:41;;;;;;;13.93;11.17;;;;;;;19.88;nan;99970.88;4989759;28;20350;-77
2022/04/30 11:07:08;;;;;;;14.53;10.80;;;;;;;19.80;nan;99965.44;4991012;28;20462;-78
2022/04/30 11:09:41;;;;;;;12.70;11.35;;;;;;;19.77;nan;99971.91;4991745;28;20509;-77
2022/04/30 11:12:07;;;;;;;11.10;10.00;;;;;;;19.84;nan;99964.97;4991219;28;20305;-77
2022/04/30 11:14:33;;;;;;;13.87;11.93;;;;;;;19.70;nan;99968.13;4991114;28;20498;-75
2022/04/30 11:16:59;;;;;;;16.20;10.90;;;;;;;19.40;nan;99969.22;4992048;28;20526;-78
2022/04/30 11:19:24;;;;;;;13.10;11.80;;;;;;;19.40;nan;99972.72;4990191;28;20493;-77
2022/04/30 11:21:54;;;;;;;12.77;11.43;;;;;;;19.40;nan;99953.25;4990664;28;20283;-74
2022/04/30 11:24:28;;;;;;;13.77;11.97;;;;;;;19.33;nan;99960.94;4988150;28;20276;-74
2022/04/30 11:27:04;;;;;;;12.30;11.03;;;;;;;19.14;nan;99966.34;4989724;28;20462;-78
2022/04/30 11:29:31;;;;;;;15.00;11.50;;;;;;;19.08;nan;99961.59;4988006;28;20955;-77
2022/04/30 11:31:57;;;;;;;12.57;11.30;;;;;;;19.03;nan;99964.69;4990687;28;21025;-77
2022/04/30 11:34:24;;;;;;;13.37;9.67;;;;;;;19.02;nan;99963.84;4989573;28;20580;-75
2022/04/30 11:36:55;;;;;;;17.23;11.80;;;;;;;19.04;nan;99960.19;4990666;28;20466;-77
2022/04/30 11:39:21;;;;;;;10.93;8.83;;;;;;;18.84;nan;99956.75;4989139;28;20479;-76
2022/04/30 11:41:52;;;;;;;13.30;10.00;;;;;;;18.70;nan;99957.97;4989492;28;20459;-78
2022/04/30 11:44:20;;;;;;;14.23;10.20;;;;;;;18.67;nan;99959.09;4989969;28;20477;-75
2022/04/30 11:46:47;;;;;;;11.53;10.17;;;;;;;18.76;nan;99962.75;4989050;28;20473;-76
2022/04/30 11:49:17;;;;;;;15.93;12.07;;;;;;;18.91;nan;99965.84;4990218;28;20464;-77
2022/04/30 11:51:44;;;;;;;12.70;10.30;;;;;;;18.69;nan;99961.63;4990587;28;20451;-78
2022/04/30 11:54:12;;;;;;;14.67;10.53;;;;;;;18.55;nan;99962.88;4988519;28;20486;-77
2022/04/30 11:56:42;;;;;;;12.33;10.13;;;;;;;18.30;nan;99970.44;4988107;28;20485;-76
2022/04/30 11:59:07;;;;;;;16.40;12.00;;;;;;;18.09;nan;99970.56;4991938;28;20733;-78
2022/04/30 12:01:35;;;;;;;10.70;9.30;;;;;;;18.02;nan;99969.41;4994204;28;20460;-74
2022/04/30 12:04:04;;;;;;;12.30;9.87;;;;;;;18.04;nan;99966.63;4992420;28;20218;-74